Airfield :
LOGIN :

Register | Disclaimer

   EN    FR    IT 

 










Legend :    VFR   Marginal VFR   IFR   Intensive IFR   Very Intensive IFR
Visi :
Ceiling :
>= 8 km
>= 3000ft
5 to 8 km
1000 to 3000 ft
1500m to 5 km
500 to 1000 ft
800 to 1500m
200 to 500 ft
< 800m
< 200 ft
Symbols :   Thunderstorms  Fog  Heavy snow  Heavy precipitations  Wind > 20 kt
SIGMETs :     Misc.  Thunderstorms  Icing  Turbulence  Mountain Waves  Volcanic Ashes







- Airport Elevation : 32 ft
- IATA code : LKZ


EGUL - RAF Lakenheath

CURRENT METAR :
  • 150956Z AUTO 31010G16KT 9999 -RA FEW016 BKN026 OVC033 03/03 A2936 RMK AO2 DZB03E25DZB30E41RAB45 SLP946 P0000 T00310031 $

EXPIRED METARs :
  • 150955Z AUTO 32010G16KT 9999 -RA FEW016 BKN026 OVC033 03/03 A2936 RMK AO2 DZB03E25DZB30E41RAB45 SLP946 $
  • 150941Z AUTO 32010KT 9999 BKN024 OVC035 03/03 A2935 RMK AO2 DZB03E25DZB30E41 CIG 024V036 SLP943 $
  • 150933Z AUTO 32007KT 9999 -DZ BKN026 BKN036 03/03 A2934 RMK AO2 DZB03E25DZB30 CIG 026V036 SLP939 $
  • 150925Z AUTO 32009KT 9999 FEW027 BKN035 03/03 A2934 RMK AO2 DZB03E25 SLP939 $
  • 150920Z AUTO 32010KT 9999 -DZ FEW025 BKN034 03/03 A2933 RMK AO2 DZB03 SLP936 $
  • 150903Z COR 31009KT 9999 SCT023 SCT031 02/02 A2932 RMK AO2A DZB03 SLP932 $ COR 0908
  • 150856Z AUTO 31009KT 9999 SCT023 BKN032 02/02 A2931 RMK AO2 RAE04DZB15E20RAB20E32DZB32E33 SLP929 P0000 60000 T00240024 52029 $
  • 150849Z AUTO 31008G14KT 9999 FEW016 SCT023 BKN032 02/02 A2931 RMK AO2 RAE04DZB15E20RAB20E32DZB32E33 SLP929 $
  • 150842Z AUTO 31010KT 9999 FEW016 BKN023 BKN028 02/02 A2931 RMK AO2 RAE04DZB15E20RAB20E32DZB32E33 BKN023 V SCT SLP929 $
  • 150833Z AUTO 31009KT 9999 FEW015 SCT023 02/02 A2930 RMK AO2 RAE04DZB15E20RAB20E32DZB32E33 SLP926 $
  • 150819Z AUTO 31012KT 9999 -DZ SCT021 OVC027 02/02 A2930 RMK AO2 RAE04DZB15 CIG 022V027 CIG 022 RWY24 SLP926 $
  • 150809Z AUTO 00000KT 9999 BKN022 BKN030 OVC037 02/02 A2929 RMK AO2 RAE04 CIG 022V030 BKN022 V SCT SLP922 $
  • 150756Z AUTO 00000KT 9999 -RA BKN023 BKN030 02/02 A2929 RMK AO2 RAE04DZB04E17RAB33E43DZB43E45DZB49E55RAB55 SLP922 P0000 T00190019 $
  • 150749Z AUTO M 9999 -DZ FEW009 BKN023 OVC030 02/02 A2928 RMK AO2 RAE04DZB04E17RAB33E43DZB43E45DZB49 SLP919 $
  • 150733Z AUTO 00000KT 9999 -RA SCT009 BKN023 BKN031 02/02 A2927 RMK AO2 RAE04DZB04E17RAB33 CIG 023V030 SLP915 $
  • 150731Z AUTO 00000KT 9999 SCT009 BKN023 BKN031 02/02 A2927 RMK AO2 RAE04DZB04E17 CIG 023V030 SLP915 $
  • 150718Z AUTO 00000KT 9999 FEW009 SCT020 BKN026 BKN031 02/02 A2926 RMK AO2 RAE04DZB04E17 CIG 020V026 SLP912 $
  • 150656Z AUTO 00000KT 9999 -RA FEW010 BKN022 BKN032 02/02 A2925 RMK AO2 DZE12DZB23E24RAB24 CIG 022V032 SLP909 P0000 T00220022 $

TAF AMD TAF EGUL
Valid from the 15 at 09:00 until the 16 at 10:00 UTC


150933Z 1509/1610 32010G15KT 9999 BKN030 QNH2922INS
BECMG 1510/1511 32012G20KT 9999 BKN015 610205 QNH2950INS TX07/1514Z TNM01/1604Z
No reported NOTAMs for that airfield.



MET'MAP, your aeronautical weather chart ! - Copyright ORBIFLY December 2007 - Disclaimer

ORBIFLY MET'MAP TEAM :

Programming & Development : Alexandra Zaïnal
Concept & Development : Baudouin d'Aumeries
Co-Development & Prog : Marc-Olivier Méhu
Technical & hardware support : Manuel Goepfert

Contact : metmap@orbifly.com




SOURCES & CREDITS :

   NOAA